TAF Flughafenprognosen

Nürnberg TAF, ausgegeben Sa 24.08. 07:00

TAF EDDN 240500Z 2406/2506 VRB03KT 9999 SCT045 BECMG 2407/2409 06005KT BECMG 2418/2420 VRB03KT
GültigkeitVonBisWind in Beaufort
(Knoten)
Wolken
(Meter über Grund)
Sichtweite
(Meter)
Wettererscheinung
Grundvorhersage Sa 24.08. 08:00 So 25.08. 08:00 Uml 2 (3) Wolkig (1400) >= 10000  
Übergang zu Sa 24.08. 09:00 Sa 24.08. 11:00 ONO 2 (5)      
Übergang zu Sa 24.08. 20:00 Sa 24.08. 22:00 Uml 2 (3)      

 

Hof TAF, ausgegeben Sa 24.08. 10:00

TAF EDQM 240800Z 2409/2418 08006KT 9999 SCT035 PROB30 TEMPO 2416/2418 SHRA SCT030TCU
GültigkeitVonBisWind in Beaufort
(Knoten)
Wolken
(Meter über Grund)
Sichtweite
(Meter)
Wettererscheinung
Grundvorhersage Sa 24.08. 11:00 Sa 24.08. 20:00 O 2 (6) Wolkig (1100) >= 10000  
Vorübergehend
(Wahrscheinlichkeit 30 %)
Sa 24.08. 18:00 Sa 24.08. 20:00   Wolkig (910)   Regen-Schauer

 

Erfurt-Bindersleben TAF, ausgegeben Sa 24.08. 07:00

TAF EDDE 240500Z 2406/2506 VRB03KT CAVOK BECMG 2407/2409 08008KT BECMG 2418/2420 VRB03KT
GültigkeitVonBisWind in Beaufort
(Knoten)
Wolken
(Meter über Grund)
Sichtweite
(Meter)
Wettererscheinung
Grundvorhersage Sa 24.08. 08:00 So 25.08. 08:00 Uml 2 (3) Nicht signifikant >= 10000  
Übergang zu Sa 24.08. 09:00 Sa 24.08. 11:00 O 3 (8)      
Übergang zu Sa 24.08. 20:00 Sa 24.08. 22:00 Uml 2 (3)      

 

Augsburg TAF, ausgegeben Sa 24.08. 10:00

TAF EDMA 240800Z 2409/2418 05005KT 9999 SCT035
GültigkeitVonBisWind in Beaufort
(Knoten)
Wolken
(Meter über Grund)
Sichtweite
(Meter)
Wettererscheinung
Grundvorhersage Sa 24.08. 11:00 Sa 24.08. 20:00 NO 2 (5) Wolkig (1100) >= 10000  

 

Frankfurt TAF, ausgegeben Sa 24.08. 07:00

TAF EDDF 240500Z 2406/2512 05006KT CAVOK
GültigkeitVonBisWind in Beaufort
(Knoten)
Wolken
(Meter über Grund)
Sichtweite
(Meter)
Wettererscheinung
Grundvorhersage Sa 24.08. 08:00 So 25.08. 14:00 NO 2 (6)      

 

Stuttgart TAF, ausgegeben Sa 24.08. 07:00

TAF EDDS 240500Z 2406/2506 VRB03KT 9999 BKN040 BECMG 2407/2409 05005KT BECMG 2418/2420 VRB03KT
GültigkeitVonBisWind in Beaufort
(Knoten)
Wolken
(Meter über Grund)
Sichtweite
(Meter)
Wettererscheinung
Grundvorhersage Sa 24.08. 08:00 So 25.08. 08:00 Uml 2 (3) Stark bewölkt (1200) >= 10000  
Übergang zu Sa 24.08. 09:00 Sa 24.08. 11:00 NO 2 (5)      
Übergang zu Sa 24.08. 20:00 Sa 24.08. 22:00 Uml 2 (3)      

 

München TAF, ausgegeben Sa 24.08. 07:00

TAF EDDM 240500Z 2406/2512 VRB03KT 9999 SCT025 BECMG 2407/2409 07005KT BECMG 2417/2419 VRB03KT TEMPO 2502/2506 0700 FG
GültigkeitVonBisWind in Beaufort
(Knoten)
Wolken
(Meter über Grund)
Sichtweite
(Meter)
Wettererscheinung
Grundvorhersage Sa 24.08. 08:00 So 25.08. 14:00 Uml 2 (3) Wolkig (760) >= 10000  
Übergang zu Sa 24.08. 09:00 Sa 24.08. 11:00 ONO 2 (5)      
Übergang zu Sa 24.08. 19:00 Sa 24.08. 21:00 Uml 2 (3)      
Vorübergehend So 25.08. 04:00 So 25.08. 08:00     700 Nebel